Time;durP1;ratioP1;P1;durP2;ratioP2;P2;SDS_P1;SDS_P2;PMS_P1;PMS_P2;Temp;Humidity;BMP_temperature;BMP_pressure;BME280_temperature;BME280_humidity;BME280_pressure;Samples;Min_cycle;Max_cycle;Signal;HPM_P1;HPM_P2
2023/10/08 00:01:07;;;;;;;2.97;1.90;;;21.80;50.90;21.20;97186.00;;;;4971393;28;20212;-90
2023/10/08 00:03:37;;;;;;;3.17;2.20;;;21.80;50.90;21.20;97179.00;;;;4971374;28;20212;-89
2023/10/08 00:06:12;;;;;;;2.17;1.97;;;21.80;50.90;21.20;97172.00;;;;4971475;28;20207;-89
2023/10/08 00:08:40;;;;;;;2.47;2.10;;;21.80;51.00;21.20;97171.00;;;;4971414;28;20217;-89
2023/10/08 00:11:10;;;;;;;3.07;2.37;;;21.80;50.90;21.20;97173.00;;;;4971000;28;20290;-89
2023/10/08 00:13:43;;;;;;;3.30;1.87;;;21.80;50.90;21.20;97179.00;;;;4971375;28;20275;-90
2023/10/08 00:16:16;;;;;;;3.97;2.20;;;21.80;50.90;21.20;97171.00;;;;4971516;28;20610;-89
2023/10/08 00:18:48;;;;;;;2.53;2.00;;;21.80;50.80;21.20;97165.00;;;;4970221;28;20200;-90
2023/10/08 00:21:19;;;;;;;2.77;2.07;;;21.80;50.70;21.20;97166.00;;;;4955977;28;20211;-90
2023/10/08 00:23:52;;;;;;;2.57;2.13;;;21.80;50.60;21.20;97168.00;;;;4969307;28;20211;-90
2023/10/08 00:26:27;;;;;;;2.40;2.03;;;21.80;50.60;21.30;97174.00;;;;4961906;28;20233;-90
2023/10/08 00:28:59;;;;;;;4.20;1.93;;;21.80;50.60;21.30;97175.00;;;;4969279;28;20219;-89
2023/10/08 00:31:30;;;;;;;2.27;1.70;;;21.80;50.50;21.30;97172.00;;;;4969001;28;20873;-90
2023/10/08 00:34:04;;;;;;;2.50;1.57;;;21.80;50.50;21.20;97170.00;;;;4962731;28;20235;-90
2023/10/08 00:36:34;;;;;;;2.30;2.10;;;21.80;50.60;21.30;97174.00;;;;4960333;28;20631;-89
2023/10/08 00:39:09;;;;;;;2.20;2.00;;;21.80;50.50;21.30;97169.00;;;;4956745;28;20681;-90
2023/10/08 00:41:38;;;;;;;2.77;2.13;;;21.80;50.50;21.30;97164.00;;;;4970684;28;20253;-90
2023/10/08 00:44:10;;;;;;;3.83;2.10;;;21.80;50.50;21.30;97168.00;;;;4970641;28;20211;-89
2023/10/08 00:46:47;;;;;;;2.80;2.00;;;21.90;50.30;21.30;97177.00;;;;4970289;28;20288;-90
2023/10/08 00:49:25;;;;;;;2.90;2.33;;;21.90;50.20;21.30;97163.00;;;;4971032;28;20214;-89
2023/10/08 00:52:25;;;;;;;2.47;1.90;;;21.90;50.20;21.30;97169.00;;;;4959512;28;20655;-89
2023/10/08 00:55:06;;;;;;;1.80;1.60;;;21.90;50.20;21.30;97165.00;;;;4962909;28;20227;-90
2023/10/08 00:57:36;;;;;;;3.53;2.13;;;21.90;50.30;21.30;97168.00;;;;4970378;28;20227;-90
2023/10/08 01:00:15;;;;;;;3.13;2.00;;;21.90;50.20;21.30;97159.00;;;;4965273;28;20581;-90
2023/10/08 01:02:49;;;;;;;3.73;2.20;;;21.90;50.20;21.30;97160.00;;;;4970030;28;20223;-89
2023/10/08 01:05:23;;;;;;;2.87;2.10;;;21.90;50.10;21.30;97160.00;;;;4955743;28;20231;-89
2023/10/08 01:07:51;;;;;;;2.50;1.70;;;21.90;50.10;21.30;97155.00;;;;4959252;28;20227;-89
2023/10/08 01:10:24;;;;;;;2.30;1.93;;;21.90;50.00;21.30;97142.00;;;;4966725;28;20211;-89
2023/10/08 01:13:05;;;;;;;3.00;1.80;;;21.90;49.90;21.30;97155.00;;;;4955008;28;20211;-90
2023/10/08 01:15:35;;;;;;;3.00;2.13;;;21.90;50.10;21.30;97155.00;;;;4961546;28;20214;-90
2023/10/08 01:18:14;;;;;;;3.20;2.00;;;21.90;50.10;21.30;97149.00;;;;4968810;28;20284;-90
2023/10/08 01:20:52;;;;;;;2.50;2.10;;;21.90;50.10;21.40;97147.00;;;;4958143;28;20204;-90
2023/10/08 01:23:31;;;;;;;4.43;2.83;;;21.90;50.20;21.30;97154.00;;;;4965414;28;20306;-90
2023/10/08 01:26:10;;;;;;;3.57;1.90;;;21.90;50.70;21.30;97150.00;;;;4957742;28;20238;-90
2023/10/08 01:28:42;;;;;;;6.27;2.40;;;21.90;50.40;21.40;97149.00;;;;4950985;28;20586;-89
2023/10/08 01:31:12;;;;;;;2.67;1.87;;;21.90;50.20;21.40;97147.00;;;;4963325;28;20295;-89
2023/10/08 01:33:49;;;;;;;2.33;1.80;;;21.90;50.20;21.40;97145.00;;;;4963921;28;20228;-89
2023/10/08 01:36:19;;;;;;;2.30;2.03;;;21.90;50.30;21.40;97153.00;;;;4973260;28;20207;-89
2023/10/08 01:38:49;;;;;;;2.70;1.97;;;21.90;50.30;21.40;97130.00;;;;4972688;28;20246;-89
2023/10/08 01:41:29;;;;;;;2.67;2.00;;;21.90;50.30;21.40;97137.00;;;;4973574;28;20647;-90
2023/10/08 01:43:58;;;;;;;2.57;2.03;;;22.00;50.30;21.40;97122.00;;;;4973635;28;20211;-90
2023/10/08 01:46:27;;;;;;;3.77;2.20;;;22.00;50.40;21.40;97130.00;;;;4973203;28;20228;-90
2023/10/08 01:49:00;;;;;;;2.77;2.33;;;22.00;50.30;21.40;97129.00;;;;4973549;28;20203;-90
2023/10/08 01:51:37;;;;;;;2.73;1.93;;;22.00;50.40;21.40;97124.00;;;;4973457;28;20632;-90
2023/10/08 01:54:10;;;;;;;2.83;1.90;;;21.90;50.40;21.40;97138.00;;;;4973268;28;20395;-89
2023/10/08 01:56:41;;;;;;;6.13;2.50;;;22.00;50.40;21.40;97125.00;;;;4965083;28;20227;-90
2023/10/08 01:59:10;;;;;;;2.27;1.73;;;22.00;50.40;21.40;97141.00;;;;4966885;28;20192;-90
2023/10/08 02:01:39;;;;;;;3.33;1.90;;;22.00;50.30;21.50;97128.00;;;;4961761;28;20207;-90
2023/10/08 02:04:08;;;;;;;3.67;1.80;;;22.00;50.30;21.50;97136.00;;;;4967489;28;20207;-90
2023/10/08 02:06:36;;;;;;;2.87;2.13;;;22.00;50.20;21.50;97135.00;;;;4973126;28;20871;-89
2023/10/08 02:09:07;;;;;;;2.20;1.60;;;22.00;50.20;21.50;97138.00;;;;4972567;28;20203;-89
2023/10/08 02:11:49;;;;;;;2.67;2.00;;;22.00;50.20;21.40;97132.00;;;;4956025;28;20670;-90
2023/10/08 02:14:17;;;;;;;2.20;1.90;;;22.00;49.90;21.50;97128.00;;;;4971332;28;20223;-89
2023/10/08 02:16:45;;;;;;;2.00;1.77;;;22.00;50.00;21.50;97126.00;;;;4971073;28;20228;-90
2023/10/08 02:19:18;;;;;;;2.60;1.87;;;22.00;49.80;21.50;97116.00;;;;4970561;28;20209;-90
2023/10/08 02:21:47;;;;;;;3.07;1.87;;;22.00;49.70;21.50;97132.00;;;;4971163;28;20285;-90
2023/10/08 02:24:17;;;;;;;3.83;1.90;;;22.10;49.80;21.50;97129.00;;;;4970819;28;20291;-90
2023/10/08 02:26:47;;;;;;;2.03;1.50;;;22.10;49.70;21.50;97133.00;;;;4962719;28;20606;-89
2023/10/08 02:29:15;;;;;;;3.17;2.10;;;22.10;49.60;21.50;97113.00;;;;4971912;28;20307;-89
2023/10/08 02:31:43;;;;;;;2.60;1.63;;;22.10;49.40;21.50;97126.00;;;;4972600;28;20219;-89
2023/10/08 02:34:12;;;;;;;3.00;1.87;;;22.10;49.30;21.50;97118.00;;;;4972281;28;20227;-90
2023/10/08 02:36:43;;;;;;;2.87;1.87;;;22.10;49.40;21.50;97123.00;;;;4956753;28;20240;-90
2023/10/08 02:39:17;;;;;;;3.53;2.30;;;22.10;49.40;21.50;97130.00;;;;4957917;28;20254;-90
2023/10/08 02:41:46;;;;;;;2.87;1.80;;;22.10;49.30;21.50;97141.00;;;;4955676;28;20212;-90
2023/10/08 02:44:14;;;;;;;2.67;1.93;;;22.10;49.20;21.50;97124.00;;;;4957780;28;20299;-90
2023/10/08 02:46:42;;;;;;;3.20;2.03;;;22.10;49.20;21.50;97121.00;;;;4953590;28;20231;-89
2023/10/08 02:49:11;;;;;;;3.47;2.20;;;22.10;49.10;21.50;97126.00;;;;4966885;28;20231;-89
2023/10/08 02:51:50;;;;;;;2.30;1.70;;;22.10;49.10;21.50;97123.00;;;;4971634;28;20226;-90
2023/10/08 02:54:18;;;;;;;1.90;1.70;;;22.10;49.00;21.50;97132.00;;;;4972364;28;20223;-90
2023/10/08 02:56:51;;;;;;;3.00;1.80;;;22.10;49.00;21.50;97141.00;;;;4972010;28;20226;-90
2023/10/08 02:59:22;;;;;;;2.80;1.83;;;22.10;49.10;21.50;97135.00;;;;4964096;28;20625;-89
2023/10/08 03:01:52;;;;;;;2.70;1.90;;;22.10;49.00;21.50;97145.00;;;;4971058;28;20206;-90
2023/10/08 03:04:19;;;;;;;3.40;2.07;;;22.10;48.90;21.50;97147.00;;;;4972694;28;20218;-90
2023/10/08 03:06:50;;;;;;;3.47;1.73;;;22.10;48.80;21.50;97143.00;;;;4971350;28;20250;-89
2023/10/08 03:09:22;;;;;;;2.27;1.47;;;22.10;48.80;21.50;97137.00;;;;4971245;28;20207;-90
2023/10/08 03:11:52;;;;;;;2.33;1.80;;;22.10;49.00;21.50;97140.00;;;;4970792;28;20204;-90
2023/10/08 03:14:22;;;;;;;4.20;2.07;;;22.10;48.90;21.50;97137.00;;;;4962586;28;20255;-88
2023/10/08 03:17:07;;;;;;;2.97;1.80;;;22.10;48.90;21.50;97138.00;;;;4962075;28;20230;-89
2023/10/08 03:19:35;;;;;;;3.77;1.70;;;22.10;48.70;21.50;97134.00;;;;4968574;28;20213;-89
2023/10/08 03:22:04;;;;;;;2.63;1.80;;;22.10;48.80;21.50;97133.00;;;;4950997;28;20232;-90
2023/10/08 03:24:37;;;;;;;3.53;1.50;;;22.10;48.70;21.50;97135.00;;;;4968313;28;20249;-90
2023/10/08 03:27:07;;;;;;;2.90;1.80;;;22.10;48.60;21.50;97137.00;;;;4971274;28;20261;-90
2023/10/08 03:29:41;;;;;;;3.40;1.70;;;22.10;48.50;21.50;97134.00;;;;4967238;28;20242;-90
2023/10/08 03:32:13;;;;;;;2.83;2.23;;;22.10;48.60;21.50;97128.00;;;;4972121;28;20718;-89
2023/10/08 03:37:41;;;;;;;2.83;2.00;;;22.10;48.60;21.50;97126.00;;;;4971027;28;20698;-90
2023/10/08 03:40:32;;;;;;;3.53;1.80;;;22.10;48.60;21.50;97119.00;;;;4971574;28;20242;-90
2023/10/08 03:43:02;;;;;;;2.87;1.87;;;22.10;48.50;21.40;97139.00;;;;4959017;28;20291;-90
2023/10/08 03:45:54;;;;;;;3.10;1.87;;;22.10;48.50;21.50;97132.00;;;;4961111;28;20215;-90
2023/10/08 03:48:24;;;;;;;3.67;1.73;;;22.10;48.50;21.40;97134.00;;;;4955433;28;20297;-88
2023/10/08 03:50:56;;;;;;;2.43;1.77;;;22.10;48.50;21.40;97137.00;;;;4964070;28;20674;-88
2023/10/08 03:53:24;;;;;;;2.10;1.63;;;22.10;48.60;21.40;97143.00;;;;4970848;28;20230;-88
2023/10/08 03:55:55;;;;;;;2.50;1.57;;;22.10;48.60;21.40;97141.00;;;;4971303;28;20714;-88
2023/10/08 03:58:29;;;;;;;3.00;1.60;;;22.00;48.80;21.40;97137.00;;;;4971458;28;20238;-88
2023/10/08 04:01:08;;;;;;;3.23;1.93;;;22.00;49.00;21.40;97132.00;;;;4956177;28;20199;-87
2023/10/08 04:03:57;;;;;;;2.53;1.83;;;22.00;49.00;21.30;97131.00;;;;4970807;28;20235;-88
2023/10/08 04:06:30;;;;;;;3.37;2.03;;;22.00;48.90;21.30;97125.00;;;;4968944;28;20284;-88
2023/10/08 04:09:11;;;;;;;2.60;1.77;;;22.00;48.90;21.30;97118.00;;;;4969040;28;20218;-87
2023/10/08 04:11:51;;;;;;;3.57;1.90;;;22.00;48.90;21.30;97122.00;;;;4959235;28;20225;-87
2023/10/08 04:14:29;;;;;;;2.90;2.10;;;22.00;48.80;21.20;97105.00;;;;4965030;28;20223;-87
2023/10/08 04:17:04;;;;;;;4.23;1.90;;;21.90;48.50;21.30;97123.00;;;;4969870;28;20227;-87
2023/10/08 04:19:32;;;;;;;3.47;2.10;;;21.90;48.60;21.20;97127.00;;;;4970028;28;20305;-87
2023/10/08 04:22:00;;;;;;;4.43;2.03;;;21.90;48.60;21.20;97132.00;;;;4970849;28;20207;-87
2023/10/08 04:24:34;;;;;;;3.60;2.20;;;21.90;48.60;21.20;97137.00;;;;4963073;28;20242;-88
2023/10/08 04:27:03;;;;;;;2.53;1.70;;;21.90;48.60;21.20;97142.00;;;;4970921;28;20277;-88
2023/10/08 04:29:32;;;;;;;3.93;1.80;;;21.80;48.80;21.20;97136.00;;;;4969831;28;20241;-87
2023/10/08 04:32:09;;;;;;;2.97;2.20;;;21.80;48.90;21.20;97141.00;;;;4959525;28;20212;-88
2023/10/08 04:34:44;;;;;;;3.70;1.90;;;21.80;49.00;21.10;97145.00;;;;4969315;28;20318;-88
2023/10/08 04:37:12;;;;;;;2.50;1.80;;;21.80;49.00;21.10;97150.00;;;;4962704;28;20226;-88
2023/10/08 04:39:46;;;;;;;3.03;1.83;;;21.80;49.20;21.10;97153.00;;;;4962502;28;20559;-88
2023/10/08 04:42:25;;;;;;;2.30;1.60;;;21.80;49.10;21.10;97142.00;;;;4970585;28;20217;-88
2023/10/08 04:44:54;;;;;;;3.47;2.00;;;21.80;49.10;21.10;97149.00;;;;4963276;28;20210;-87
2023/10/08 04:47:32;;;;;;;2.37;1.83;;;21.80;49.10;21.10;97156.00;;;;4970979;28;20230;-88
2023/10/08 04:49:59;;;;;;;3.27;2.00;;;21.80;49.10;21.10;97158.00;;;;4964309;28;20207;-88
2023/10/08 04:52:27;;;;;;;2.20;1.50;;;21.70;49.10;21.00;97164.00;;;;4970538;28;20208;-87
2023/10/08 04:54:56;;;;;;;2.60;1.80;;;21.70;49.30;21.00;97173.00;;;;4970495;28;20316;-87
2023/10/08 04:57:25;;;;;;;2.63;1.40;;;21.70;49.60;21.00;97173.00;;;;4969178;28;20257;-87
2023/10/08 04:59:57;;;;;;;3.60;1.67;;;21.70;50.00;21.00;97176.00;;;;4962727;28;20264;-87
2023/10/08 05:02:36;;;;;;;1.70;1.60;;;21.70;50.40;21.00;97172.00;;;;4968637;28;20215;-87
2023/10/08 05:05:22;;;;;;;2.03;1.50;;;21.70;50.80;20.90;97178.00;;;;4962391;28;20247;-87
2023/10/08 05:08:28;;;;;;;3.77;2.20;;;21.70;50.90;20.90;97180.00;;;;4960740;28;20254;-87
2023/10/08 05:11:24;;;;;;;2.97;1.43;;;21.70;50.60;20.80;97181.00;;;;4961234;28;20245;-87
2023/10/08 05:14:05;;;;;;;1.87;1.47;;;21.60;50.70;20.80;97179.00;;;;4961044;28;20199;-88
2023/10/08 05:16:43;;;;;;;3.43;1.53;;;21.60;51.10;20.80;97181.00;;;;4969414;28;20330;-88
2023/10/08 05:19:37;;;;;;;4.07;1.90;;;21.60;51.30;20.70;97172.00;;;;4970019;28;20204;-88
2023/10/08 05:22:17;;;;;;;4.10;2.03;;;21.50;51.20;20.70;97181.00;;;;4964707;28;20647;-87
2023/10/08 05:25:05;;;;;;;2.33;1.80;;;21.50;51.00;20.70;97183.00;;;;4970431;28;20211;-88
2023/10/08 05:30:37;;;;;;;2.40;1.43;;;21.40;50.90;20.60;97186.00;;;;4961798;28;20195;-87
2023/10/08 05:33:12;;;;;;;2.40;1.70;;;21.40;50.90;20.60;97199.00;;;;4970333;28;20665;-87
2023/10/08 05:35:54;;;;;;;2.53;1.77;;;21.40;51.10;20.60;97200.00;;;;4961512;28;20760;-88
2023/10/08 05:41:38;;;;;;;3.43;1.67;;;21.40;51.60;20.60;97216.00;;;;4970204;28;20211;-87
2023/10/08 05:44:38;;;;;;;2.03;1.80;;;21.40;51.70;20.50;97223.00;;;;4970248;28;20208;-88
2023/10/08 05:47:26;;;;;;;2.33;1.60;;;21.30;52.10;20.50;97226.00;;;;4970221;28;20234;-88
2023/10/08 05:50:09;;;;;;;3.00;1.97;;;21.30;52.00;20.50;97224.00;;;;4956996;28;20212;-88
2023/10/08 05:52:50;;;;;;;3.47;2.30;;;21.30;51.90;20.40;97215.00;;;;4961294;28;20295;-88
2023/10/08 05:55:25;;;;;;;3.53;2.20;;;21.30;51.80;20.40;97212.00;;;;4969701;28;20281;-88
2023/10/08 06:03:35;;;;;;;3.07;1.77;;;21.20;51.70;20.40;97201.00;;;;4967740;28;20256;-87
2023/10/08 06:06:35;;;;;;;3.27;2.13;;;21.20;51.90;20.40;97207.00;;;;4967670;28;20207;-88
2023/10/08 06:09:21;;;;;;;3.17;2.00;;;21.10;51.80;20.40;97205.00;;;;4967483;28;20214;-87
2023/10/08 06:15:08;;;;;;;1.70;1.60;;;21.10;51.90;20.30;97200.00;;;;4906501;28;20205;-87
2023/10/08 06:18:04;;;;;;;4.50;2.00;;;21.10;52.10;20.30;97198.00;;;;4971287;28;20223;-87
2023/10/08 06:20:32;;;;;;;2.83;1.70;;;21.10;52.40;20.30;97205.00;;;;4972922;28;20317;-88
2023/10/08 06:23:06;;;;;;;2.80;2.00;;;21.10;52.60;20.30;97207.00;;;;4973263;28;20268;-88
2023/10/08 06:25:44;;;;;;;3.73;2.10;;;21.10;52.40;20.30;97227.00;;;;4971679;28;20735;-88
2023/10/08 06:28:15;;;;;;;2.20;1.70;;;21.10;52.50;20.30;97215.00;;;;4967550;28;20258;-87
2023/10/08 06:30:44;;;;;;;2.80;1.90;;;21.00;52.70;20.30;97216.00;;;;4972596;28;20220;-87
2023/10/08 06:33:12;;;;;;;2.97;2.00;;;21.00;53.10;20.30;97213.00;;;;4972780;28;20214;-87
2023/10/08 06:35:44;;;;;;;4.47;2.73;;;21.00;52.80;20.30;97223.00;;;;4972622;28;20692;-87
2023/10/08 06:38:18;;;;;;;2.53;1.70;;;21.00;52.70;20.30;97220.00;;;;4972231;28;20265;-88
2023/10/08 06:40:48;;;;;;;2.93;1.73;;;21.00;53.00;20.30;97220.00;;;;4971993;28;20207;-87
2023/10/08 06:43:16;;;;;;;4.53;1.73;;;21.00;53.10;20.30;97222.00;;;;4972706;28;20215;-88
2023/10/08 06:45:47;;;;;;;3.53;1.63;;;21.00;53.00;20.30;97222.00;;;;4972733;28;20214;-88
2023/10/08 06:48:20;;;;;;;2.90;1.87;;;21.00;53.20;20.30;97220.00;;;;4971022;28;20293;-88
2023/10/08 06:50:49;;;;;;;4.83;2.03;;;21.00;53.20;20.30;97218.00;;;;4966411;28;20834;-87
2023/10/08 06:53:19;;;;;;;5.53;1.80;;;21.00;53.00;20.30;97229.00;;;;4970409;28;20819;-88
2023/10/08 06:55:48;;;;;;;3.20;2.20;;;21.00;53.00;20.40;97235.00;;;;4970182;28;20689;-87
2023/10/08 06:58:16;;;;;;;2.10;1.60;;;21.00;53.10;20.40;97235.00;;;;4962162;28;20653;-88
2023/10/08 07:00:48;;;;;;;3.57;2.20;;;21.00;53.70;20.40;97236.00;;;;4967953;28;20242;-88
2023/10/08 07:03:22;;;;;;;2.40;1.57;;;21.00;53.80;20.40;97239.00;;;;4965039;28;20657;-88
2023/10/08 07:05:59;;;;;;;3.03;1.77;;;21.10;54.00;20.50;97223.00;;;;4970147;28;20211;-90
2023/10/08 07:08:31;;;;;;;3.47;2.33;;;21.10;54.00;20.50;97230.00;;;;4972102;28;20319;-87
2023/10/08 07:11:04;;;;;;;5.90;2.20;;;21.10;53.90;20.50;97236.00;;;;4972240;28;20223;-88
2023/10/08 07:13:32;;;;;;;3.17;1.90;;;21.20;54.00;20.60;97234.00;;;;4971929;28;20207;-88
2023/10/08 07:16:04;;;;;;;2.77;1.87;;;21.20;54.00;20.60;97239.00;;;;4971886;28;20226;-87
2023/10/08 07:18:33;;;;;;;3.17;1.77;;;21.20;54.10;20.60;97241.00;;;;4972115;28;20227;-88
2023/10/08 07:21:11;;;;;;;2.70;2.10;;;21.30;54.20;20.70;97243.00;;;;4972269;28;20226;-88
2023/10/08 07:23:55;;;;;;;2.67;1.80;;;21.30;54.20;20.70;97252.00;;;;4971659;28;20234;-88
2023/10/08 07:26:25;;;;;;;2.93;1.77;;;21.30;54.00;20.70;97232.00;;;;4972022;28;20218;-88
2023/10/08 07:28:53;;;;;;;5.57;2.20;;;21.40;54.00;20.80;97225.00;;;;4957984;28;20250;-88
2023/10/08 07:31:28;;;;;;;3.30;1.70;;;21.40;53.60;20.80;97217.00;;;;4972323;28;20671;-87
2023/10/08 07:34:17;;;;;;;4.03;1.77;;;21.40;53.30;20.80;97225.00;;;;4957272;28;20209;-88
2023/10/08 07:36:51;;;;;;;3.73;1.90;;;21.40;53.20;20.80;97236.00;;;;4971387;28;20245;-87
2023/10/08 07:39:26;;;;;;;3.13;1.70;;;21.40;53.00;20.90;97234.00;;;;4971562;28;20655;-88
2023/10/08 07:41:59;;;;;;;3.00;2.17;;;21.50;53.00;20.90;97236.00;;;;4971657;28;20210;-87
2023/10/08 07:44:28;;;;;;;2.70;2.10;;;21.50;52.90;20.90;97234.00;;;;4962868;28;20295;-87
2023/10/08 07:47:04;;;;;;;5.63;2.10;;;21.50;52.70;21.00;97233.00;;;;4971374;28;20231;-87
2023/10/08 07:49:47;;;;;;;4.53;2.57;;;21.60;52.90;21.00;97244.00;;;;4962735;28;20270;-87
2023/10/08 07:52:16;;;;;;;3.00;2.00;;;21.60;53.00;21.00;97243.00;;;;4962209;28;20285;-87
2023/10/08 07:54:45;;;;;;;2.77;2.20;;;21.60;52.60;21.10;97235.00;;;;4970073;28;20223;-87
2023/10/08 07:57:36;;;;;;;5.60;2.30;;;21.60;52.60;21.10;97234.00;;;;4969669;28;20420;-87
2023/10/08 08:00:26;;;;;;;3.43;1.93;;;21.70;52.70;21.10;97240.00;;;;4950822;28;20200;-87
2023/10/08 08:02:55;;;;;;;3.50;2.07;;;21.70;52.60;21.20;97234.00;;;;4963123;28;20253;-87
2023/10/08 08:05:46;;;;;;;2.87;1.80;;;21.70;52.30;21.20;97231.00;;;;4972176;28;20249;-87
2023/10/08 08:08:17;;;;;;;3.77;2.10;;;21.80;52.30;21.20;97229.00;;;;4971260;28;20277;-88
2023/10/08 08:10:46;;;;;;;3.20;2.10;;;21.80;52.20;21.30;97239.00;;;;4971613;28;20622;-90
2023/10/08 08:13:20;;;;;;;4.67;2.20;;;21.80;52.30;21.30;97271.00;;;;4971447;28;20353;-87
2023/10/08 08:15:50;;;;;;;3.90;1.87;;;21.90;52.30;21.30;97275.00;;;;4969640;28;20227;-88
2023/10/08 08:18:23;;;;;;;3.70;1.97;;;21.90;52.40;21.30;97275.00;;;;4969245;28;20231;-88
2023/10/08 08:20:50;;;;;;;2.77;2.20;;;21.90;52.40;21.40;97283.00;;;;4963922;28;20597;-87
2023/10/08 08:23:18;;;;;;;3.33;1.87;;;21.90;52.60;21.40;97278.00;;;;4965339;28;20231;-88
2023/10/08 08:25:55;;;;;;;1.90;1.70;;;21.90;53.00;21.40;97274.00;;;;4969228;28;20219;-87
2023/10/08 08:28:24;;;;;;;3.70;2.17;;;22.00;53.30;21.40;97269.00;;;;4969442;28;20821;-88
2023/10/08 08:30:55;;;;;;;2.87;2.10;;;22.00;53.40;21.40;97260.00;;;;4971084;28;20203;-90
2023/10/08 08:33:29;;;;;;;2.73;2.00;;;22.00;54.00;21.40;97259.00;;;;4971077;28;20207;-88
2023/10/08 08:36:05;;;;;;;2.63;1.80;;;22.00;54.20;21.40;97253.00;;;;4971111;28;20325;-88
2023/10/08 08:38:39;;;;;;;3.47;2.57;;;22.10;53.80;21.40;97256.00;;;;4969245;28;20290;-88
2023/10/08 08:41:07;;;;;;;2.73;2.07;;;22.10;53.70;21.50;97253.00;;;;4968729;28;20260;-88
2023/10/08 08:43:36;;;;;;;3.73;2.43;;;22.10;53.80;21.50;97273.00;;;;4968423;28;20203;-88
2023/10/08 08:46:14;;;;;;;3.27;2.23;;;22.10;53.50;21.50;97248.00;;;;4967999;28;20218;-88
2023/10/08 08:48:52;;;;;;;2.83;2.40;;;22.20;54.00;21.60;97266.00;;;;4969093;28;20524;-88
2023/10/08 08:51:25;;;;;;;2.97;2.30;;;22.10;54.10;21.60;97267.00;;;;4965265;28;20303;-88
2023/10/08 08:53:53;;;;;;;3.03;2.23;;;22.20;53.60;21.60;97259.00;;;;4960983;28;20204;-88
2023/10/08 08:56:32;;;;;;;2.30;1.90;;;22.20;53.80;21.70;97269.00;;;;4968288;28;20227;-88
2023/10/08 08:59:11;;;;;;;4.07;2.07;;;22.30;53.50;21.80;97291.00;;;;4969099;28;20210;-88
2023/10/08 09:01:45;;;;;;;2.83;1.67;;;22.30;53.30;21.80;97284.00;;;;4970459;28;20203;-88
2023/10/08 09:04:32;;;;;;;8.57;2.33;;;22.30;53.30;21.90;97301.00;;;;4970560;28;20589;-88
2023/10/08 09:07:11;;;;;;;3.70;2.07;;;22.40;53.30;21.90;97293.00;;;;4970717;28;20711;-88
2023/10/08 09:09:41;;;;;;;5.03;2.13;;;22.40;52.80;21.90;97286.00;;;;4970441;28;20199;-88
2023/10/08 09:12:11;;;;;;;4.87;2.37;;;22.50;52.90;22.00;97293.00;;;;4970489;28;20214;-87
2023/10/08 09:14:45;;;;;;;3.43;2.17;;;22.50;52.70;22.00;97290.00;;;;4970212;28;20205;-88
2023/10/08 09:17:23;;;;;;;2.57;1.77;;;22.50;53.00;22.00;97290.00;;;;4970372;28;20234;-90
2023/10/08 09:20:15;;;;;;;4.33;1.80;;;22.50;53.10;22.10;97281.00;;;;4971298;28;20209;-90
2023/10/08 09:22:47;;;;;;;3.13;1.60;;;22.50;52.90;22.10;97295.00;;;;4971136;28;20214;-90
2023/10/08 09:25:30;;;;;;;4.43;1.93;;;22.70;53.30;22.20;97292.00;;;;4971087;28;20180;-89
2023/10/08 09:28:15;;;;;;;2.80;1.50;;;22.60;53.20;22.20;97288.00;;;;4970870;28;20223;-90
2023/10/08 09:30:44;;;;;;;2.80;1.80;;;22.70;53.90;22.20;97307.00;;;;4970392;28;20232;-89
2023/10/08 09:33:48;;;;;;;3.33;1.97;;;22.70;53.00;22.30;97300.00;;;;4971277;28;20574;-89
2023/10/08 09:36:34;;;;;;;3.93;1.97;;;22.80;52.60;22.40;97316.00;;;;4970387;28;20576;-89
2023/10/08 09:39:05;;;;;;;2.43;1.77;;;22.80;52.40;22.40;97317.00;;;;4970509;28;20218;-90
2023/10/08 09:41:55;;;;;;;3.03;1.77;;;22.90;52.40;22.50;97322.00;;;;4970040;28;20697;-90
2023/10/08 09:44:42;;;;;;;3.93;1.77;;;22.90;52.20;22.50;97334.00;;;;4969843;28;20648;-90
2023/10/08 09:47:23;;;;;;;3.57;2.03;;;23.00;51.60;22.60;97340.00;;;;4969803;28;20227;-89
2023/10/08 09:50:07;;;;;;;4.13;1.63;;;23.00;51.40;22.60;97334.00;;;;4970073;28;20253;-89
2023/10/08 09:53:05;;;;;;;2.57;1.67;;;23.00;51.20;22.60;97313.00;;;;4972226;28;20680;-90
2023/10/08 09:55:59;;;;;;;3.43;2.00;;;23.10;51.60;22.60;97314.00;;;;4974051;28;20211;-89
2023/10/08 10:01:28;;;;;;;7.97;1.77;;;23.20;51.20;22.70;97314.00;;;;4973058;28;20210;-89
2023/10/08 10:04:13;;;;;;;2.83;1.90;;;23.30;51.60;22.80;97321.00;;;;4974039;28;20227;-90
2023/10/08 10:06:51;;;;;;;2.83;1.63;;;23.30;51.90;22.80;97339.00;;;;4974331;28;20230;-89
2023/10/08 10:09:36;;;;;;;3.33;2.30;;;23.30;51.60;22.90;97338.00;;;;4974228;28;20319;-90
2023/10/08 10:12:41;;;;;;;5.40;2.30;;;23.40;51.50;23.00;97351.00;;;;4974218;28;20227;-90
2023/10/08 10:18:39;;;;;;;3.17;2.07;;;23.40;51.40;23.00;97358.00;;;;5072109;22;20612;-86
2023/10/08 10:21:32;;;;;;;3.80;2.83;;;23.50;51.40;23.00;97353.00;;;;5069603;28;20205;-86
2023/10/08 10:24:00;;;;;;;5.03;2.60;;;23.60;51.10;23.00;97350.00;;;;5053313;28;20615;-86
2023/10/08 10:26:30;;;;;;;3.97;1.97;;;23.60;51.90;23.10;97353.00;;;;5055733;28;20232;-86
2023/10/08 10:29:22;;;;;;;3.17;2.50;;;23.60;51.80;23.10;97342.00;;;;5047292;28;20611;-86
2023/10/08 10:31:53;;;;;;;2.90;2.30;;;23.60;52.20;23.10;97341.00;;;;5047281;28;20261;-85
2023/10/08 10:34:26;;;;;;;3.27;2.00;;;23.60;51.90;23.10;97332.00;;;;5041865;28;20618;-86
2023/10/08 10:37:08;;;;;;;4.13;3.63;;;23.60;51.90;23.20;97325.00;;;;5024287;28;20242;-85
2023/10/08 10:39:39;;;;;;;8.07;3.63;;;23.60;51.80;23.20;97318.00;;;;5034965;28;20219;-85
2023/10/08 10:42:20;;;;;;;3.70;3.20;;;23.60;51.90;23.20;97305.00;;;;5034924;28;20207;-86
2023/10/08 10:44:49;;;;;;;4.80;2.27;;;23.70;52.00;23.20;97307.00;;;;5020230;28;20660;-86
2023/10/08 10:47:27;;;;;;;2.40;1.80;;;23.70;51.60;23.20;97303.00;;;;5037325;28;20263;-85
2023/10/08 10:50:18;;;;;;;4.10;1.73;;;23.70;51.80;23.20;97298.00;;;;5043298;28;20221;-85
2023/10/08 10:52:51;;;;;;;4.93;1.97;;;23.70;52.00;23.20;97283.00;;;;5045765;28;20359;-86
2023/10/08 10:55:20;;;;;;;3.83;2.00;;;23.70;52.10;23.30;97286.00;;;;5054410;28;20287;-86
2023/10/08 10:58:03;;;;;;;3.40;2.07;;;23.70;51.90;23.30;97284.00;;;;5054208;28;20637;-85
2023/10/08 11:00:56;;;;;;;2.40;1.83;;;23.70;51.90;23.30;97299.00;;;;5045291;28;20288;-85
2023/10/08 11:03:23;;;;;;;2.10;1.83;;;23.80;51.60;23.40;97301.00;;;;5050562;28;20292;-85
2023/10/08 11:05:59;;;;;;;4.17;2.03;;;23.80;51.70;23.40;97305.00;;;;5037547;28;20280;-86
2023/10/08 11:08:34;;;;;;;3.10;1.80;;;23.80;51.70;23.40;97292.00;;;;5053680;28;20235;-86
2023/10/08 11:11:05;;;;;;;3.00;2.30;;;23.90;51.70;23.40;97295.00;;;;5033525;28;20204;-87
2023/10/08 11:13:41;;;;;;;3.07;2.17;;;23.80;51.60;23.40;97293.00;;;;5051333;28;20206;-86
2023/10/08 11:16:13;;;;;;;5.97;2.10;;;23.90;51.70;23.40;97287.00;;;;5021079;28;20595;-87
2023/10/08 11:18:47;;;;;;;2.77;1.70;;;23.90;51.40;23.40;97280.00;;;;5055476;28;20406;-85
2023/10/08 11:21:16;;;;;;;6.07;2.73;;;23.90;51.30;23.50;97291.00;;;;5033446;28;20239;-86
2023/10/08 11:23:46;;;;;;;4.63;2.20;;;23.90;51.30;23.50;97299.00;;;;5035755;28;20208;-86
2023/10/08 11:26:16;;;;;;;3.40;1.80;;;23.90;51.20;23.50;97299.00;;;;5052986;28;20226;-86
2023/10/08 11:28:47;;;;;;;4.83;2.07;;;23.90;51.50;23.60;97297.00;;;;5046186;28;20208;-87
2023/10/08 11:31:19;;;;;;;6.30;2.20;;;24.00;51.30;23.60;97311.00;;;;5051942;28;20213;-86
2023/10/08 11:33:53;;;;;;;4.90;2.00;;;24.00;51.00;23.60;97311.00;;;;5030203;28;20264;-86
2023/10/08 11:36:27;;;;;;;3.20;2.07;;;24.00;51.40;23.70;97319.00;;;;5034378;28;20220;-87
2023/10/08 11:39:00;;;;;;;4.33;2.03;;;24.00;52.30;23.70;97325.00;;;;5050969;28;20291;-85
2023/10/08 11:41:30;;;;;;;2.93;1.80;;;24.10;51.70;23.70;97323.00;;;;5050931;28;20204;-85
2023/10/08 11:43:59;;;;;;;3.30;1.57;;;24.10;51.60;23.80;97322.00;;;;5046751;28;20682;-85
2023/10/08 11:46:32;;;;;;;3.30;2.23;;;24.20;51.50;23.80;97324.00;;;;5032276;28;20639;-85
2023/10/08 11:49:04;;;;;;;4.00;1.90;;;24.20;51.50;23.80;97318.00;;;;5028558;28;20212;-85
2023/10/08 11:51:34;;;;;;;2.73;1.77;;;24.20;51.10;23.90;97325.00;;;;5017915;28;20638;-85
2023/10/08 11:54:01;;;;;;;3.60;2.00;;;24.30;51.30;23.90;97330.00;;;;5040560;28;20208;-84